createdAt,value
2019-06-10T00:01:52.720Z,18.71
2019-06-10T00:04:18.592Z,18.81
2019-06-10T00:06:44.446Z,18.35
2019-06-10T00:09:11.823Z,18.29
2019-06-10T00:11:38.030Z,18.19
2019-06-10T00:14:04.555Z,18.45
2019-06-10T00:16:31.577Z,18.58
2019-06-10T00:18:57.974Z,18.65
2019-06-10T00:21:23.890Z,18.60
2019-06-10T00:23:51.764Z,18.40
2019-06-10T00:26:17.817Z,18.59
2019-06-10T00:28:43.684Z,18.40
2019-06-10T00:31:11.463Z,18.61
2019-06-10T00:33:37.283Z,18.72
2019-06-10T00:36:05.849Z,18.46
2019-06-10T00:38:31.842Z,18.21
2019-06-10T00:40:57.962Z,18.34
2019-06-10T00:43:23.823Z,18.23
2019-06-10T00:45:51.315Z,18.16
2019-06-10T00:48:26.059Z,18.42
2019-06-10T00:50:45.155Z,18.48
2019-06-10T00:53:14.002Z,18.39
2019-06-10T00:55:41.150Z,18.13
2019-06-10T00:58:07.561Z,17.91
2019-06-10T01:00:33.609Z,18.21
2019-06-10T01:03:01.060Z,18.22
2019-06-10T01:05:27.265Z,18.01
2019-06-10T01:07:53.122Z,17.88
2019-06-10T01:10:21.072Z,17.66
2019-06-10T01:12:46.884Z,17.77
2019-06-10T01:15:15.188Z,17.53
2019-06-10T01:17:41.746Z,17.86
2019-06-10T01:20:08.205Z,17.92
2019-06-10T01:22:34.083Z,18.01
2019-06-10T01:25:01.653Z,18.12
2019-06-10T01:27:27.666Z,18.08
2019-06-10T01:29:53.534Z,18.20
2019-06-10T01:32:21.532Z,18.18
2019-06-10T01:34:47.123Z,18.08
2019-06-10T01:37:14.453Z,18.16
2019-06-10T01:39:41.232Z,17.63
2019-06-10T01:42:08.220Z,17.61
2019-06-10T01:44:34.074Z,17.59
2019-06-10T01:47:01.011Z,17.68
2019-06-10T01:49:26.960Z,17.84
2019-06-10T01:51:52.799Z,17.87
2019-06-10T01:54:21.146Z,17.80
2019-06-10T01:56:46.395Z,17.67
2019-06-10T01:59:13.793Z,17.80
2019-06-10T02:01:44.922Z,17.71
2019-06-10T02:04:13.078Z,17.77
2019-06-10T02:06:40.599Z,17.68
2019-06-10T02:09:06.672Z,17.52
2019-06-10T02:11:35.929Z,17.04
2019-06-10T02:14:03.847Z,17.36
2019-06-10T02:16:32.384Z,17.18
2019-06-10T02:19:00.792Z,17.19
2019-06-10T02:21:25.197Z,17.09
2019-06-10T02:23:52.054Z,17.12
2019-06-10T02:26:19.902Z,16.65
2019-06-10T02:28:46.023Z,16.49
2019-06-10T02:31:15.111Z,16.83
2019-06-10T02:33:42.080Z,17.09
2019-06-10T02:36:07.379Z,16.97
2019-06-10T02:38:39.061Z,16.86
2019-06-10T02:41:04.409Z,16.76
2019-06-10T02:43:33.322Z,17.08
2019-06-10T02:45:57.178Z,17.21
2019-06-10T02:48:30.152Z,17.22
2019-06-10T02:51:05.195Z,16.86
2019-06-10T02:53:35.704Z,16.86
2019-06-10T02:55:59.310Z,17.00
2019-06-10T02:58:31.473Z,17.08
2019-06-10T03:00:54.602Z,16.93
2019-06-10T03:03:31.657Z,16.74
2019-06-10T03:05:48.458Z,16.74
2019-06-10T03:08:16.078Z,16.70
2019-06-10T03:10:44.434Z,16.46
2019-06-10T03:13:09.844Z,16.42
2019-06-10T03:15:37.599Z,16.68
2019-06-10T03:18:03.464Z,16.63
2019-06-10T03:20:29.299Z,16.24
2019-06-10T03:22:55.170Z,16.12
2019-06-10T03:25:24.207Z,16.05
2019-06-10T03:27:48.762Z,16.18
2019-06-10T03:30:20.946Z,16.15
2019-06-10T03:32:46.602Z,16.15
2019-06-10T03:35:13.198Z,16.36
2019-06-10T03:37:38.439Z,16.51
2019-06-10T03:40:05.070Z,16.65
2019-06-10T03:42:32.480Z,16.82
2019-06-10T03:44:58.451Z,16.82
2019-06-10T03:47:25.892Z,16.60
2019-06-10T03:49:55.957Z,16.66
2019-06-10T03:52:22.469Z,16.28
2019-06-10T03:54:47.749Z,16.25
2019-06-10T03:57:13.597Z,16.41
2019-06-10T03:59:39.432Z,16.35
2019-06-10T04:02:05.271Z,16.16
2019-06-10T04:04:32.830Z,15.94
2019-06-10T04:06:58.764Z,16.07
2019-06-10T04:09:25.824Z,16.22
2019-06-10T04:11:53.256Z,16.40
2019-06-10T04:14:19.539Z,16.64
2019-06-10T04:16:45.409Z,16.86
2019-06-10T04:19:13.156Z,17.03
2019-06-10T04:21:39.284Z,17.14
2019-06-10T04:24:05.138Z,16.84
2019-06-10T04:26:32.735Z,16.89
2019-06-10T04:28:58.749Z,16.82
2019-06-10T04:31:25.447Z,16.89
2019-06-10T04:33:52.509Z,17.28
2019-06-10T04:36:18.415Z,17.24
2019-06-10T04:38:44.239Z,16.96
2019-06-10T04:41:12.395Z,16.71
2019-06-10T04:43:37.785Z,16.77
2019-06-10T04:46:03.635Z,16.97
2019-06-10T04:48:29.486Z,16.99
2019-06-10T04:50:55.332Z,16.96
2019-06-10T04:53:23.685Z,16.90
2019-06-10T04:55:48.920Z,17.12
2019-06-10T04:58:14.744Z,17.02
2019-06-10T05:00:42.766Z,17.20
2019-06-10T05:03:08.424Z,17.25
2019-06-10T05:05:34.279Z,17.04
2019-06-10T05:08:02.517Z,17.32
2019-06-10T05:10:28.374Z,17.57
2019-06-10T05:12:55.485Z,17.53
2019-06-10T05:15:24.317Z,17.54
2019-06-10T05:17:49.083Z,17.17
2019-06-10T05:20:15.043Z,17.10
2019-06-10T05:22:42.448Z,17.08
2019-06-10T05:25:08.561Z,17.28
2019-06-10T05:27:34.737Z,17.05
2019-06-10T05:30:02.385Z,16.82
2019-06-10T05:32:29.039Z,17.06
2019-06-10T05:34:55.035Z,17.22
2019-06-10T05:37:23.295Z,17.25
2019-06-10T05:39:48.639Z,17.26
2019-06-10T05:42:14.512Z,17.46
2019-06-10T05:44:40.338Z,17.64
2019-06-10T05:47:06.206Z,17.78
2019-06-10T05:49:34.278Z,17.88
2019-06-10T05:52:01.923Z,17.91
2019-06-10T05:54:28.990Z,17.94
2019-06-10T05:56:54.984Z,17.96
2019-06-10T05:59:23.035Z,17.86
2019-06-10T06:01:48.561Z,18.00
2019-06-10T06:04:14.431Z,17.89
2019-06-10T06:06:42.458Z,17.96
2019-06-10T06:09:08.020Z,17.86
2019-06-10T06:11:35.244Z,18.14
2019-06-10T06:14:02.687Z,18.13
2019-06-10T06:16:29.897Z,18.10
2019-06-10T06:18:56.568Z,18.13
2019-06-10T06:21:29.986Z,18.12
2019-06-10T06:23:52.596Z,18.15
2019-06-10T06:26:18.045Z,18.21
2019-06-10T06:28:43.858Z,18.05
2019-06-10T06:31:09.742Z,17.99
2019-06-10T06:33:37.976Z,17.93
2019-06-10T06:36:03.779Z,18.16
2019-06-10T06:38:31.431Z,18.35
2019-06-10T06:40:57.399Z,18.54
2019-06-10T06:43:23.255Z,18.35
2019-06-10T06:45:49.103Z,18.41
2019-06-10T06:48:14.960Z,18.60
2019-06-10T06:50:59.828Z,18.58
2019-06-10T06:53:21.324Z,18.66
2019-06-10T06:55:38.449Z,18.80
2019-06-10T06:58:04.793Z,18.84
2019-06-10T07:00:51.023Z,19.12
2019-06-10T07:03:03.079Z,19.09
2019-06-10T07:05:32.676Z,19.12
2019-06-10T07:08:02.437Z,19.02
2019-06-10T07:10:28.903Z,19.15
2019-06-10T07:12:56.648Z,19.28
2019-06-10T07:15:39.527Z,19.51
2019-06-10T07:18:05.973Z,19.64
2019-06-10T07:20:33.253Z,19.65
2019-06-10T07:22:59.544Z,19.74
2019-06-10T07:25:25.393Z,19.86
2019-06-10T07:27:52.728Z,20.06
2019-06-10T07:30:18.711Z,20.10
2019-06-10T07:32:47.335Z,20.17
2019-06-10T07:35:12.985Z,20.10
2019-06-10T07:37:39.446Z,20.05
2019-06-10T07:40:05.474Z,19.97
2019-06-10T07:42:33.238Z,19.78
2019-06-10T07:44:59.067Z,19.56
2019-06-10T07:47:24.917Z,19.42
2019-06-10T07:49:52.310Z,19.71
2019-06-10T07:52:20.012Z,20.05
2019-06-10T07:54:46.098Z,20.28
2019-06-10T07:57:12.965Z,20.26
2019-06-10T07:59:39.556Z,20.21
2019-06-10T08:02:05.534Z,20.23
2019-06-10T08:04:33.609Z,20.16
2019-06-10T08:06:59.752Z,20.22
2019-06-10T08:09:25.598Z,20.35
2019-06-10T08:11:53.285Z,20.40
2019-06-10T08:14:19.466Z,20.46
2019-06-10T08:16:46.722Z,20.49
2019-06-10T08:19:35.007Z,20.54
2019-06-10T08:21:43.315Z,20.58
2019-06-10T08:24:08.305Z,20.52
2019-06-10T08:26:35.358Z,20.43
2019-06-10T08:29:04.405Z,20.42
2019-06-10T08:31:29.799Z,20.48
2019-06-10T08:33:55.621Z,20.54
2019-06-10T08:36:22.380Z,20.56
2019-06-10T08:38:48.853Z,20.54
2019-06-10T08:41:14.788Z,20.55
2019-06-10T08:43:43.515Z,20.53
2019-06-10T08:46:08.352Z,20.70
2019-06-10T08:48:34.191Z,20.76
2019-06-10T08:51:00.338Z,20.82
2019-06-10T08:53:26.213Z,20.95
2019-06-10T08:55:53.650Z,20.85
2019-06-10T08:58:22.371Z,20.81
2019-06-10T09:00:49.344Z,20.98
2019-06-10T09:03:15.405Z,21.07
2019-06-10T09:05:46.057Z,21.12
2019-06-10T09:08:08.976Z,21.15
2019-06-10T09:10:34.946Z,21.27
2019-06-10T09:13:02.780Z,21.19
2019-06-10T09:15:28.539Z,21.26
2019-06-10T09:17:56.156Z,21.33
2019-06-10T09:20:23.142Z,21.58
2019-06-10T09:23:10.875Z,21.67
2019-06-10T09:25:17.170Z,21.57
2019-06-10T09:27:46.606Z,21.37
2019-06-10T09:30:13.465Z,21.44
2019-06-10T09:32:39.818Z,20.94
2019-06-10T09:35:08.201Z,20.89
2019-06-10T09:37:34.043Z,20.82
2019-06-10T09:40:00.057Z,20.86
2019-06-10T09:42:25.952Z,21.11
2019-06-10T09:44:55.393Z,20.72
2019-06-10T09:47:22.647Z,20.96
2019-06-10T09:49:50.478Z,21.05
2019-06-10T09:52:16.430Z,21.52
2019-06-10T09:54:46.950Z,21.90
2019-06-10T09:57:12.556Z,22.09
2019-06-10T09:59:38.069Z,21.87
2019-06-10T10:02:07.133Z,21.78
2019-06-10T10:04:32.638Z,22.18
2019-06-10T10:06:58.820Z,22.47
2019-06-10T10:09:24.705Z,22.61
2019-06-10T10:11:55.049Z,22.97
2019-06-10T10:14:18.416Z,22.88
2019-06-10T10:16:49.332Z,23.18
2019-06-10T10:19:13.075Z,23.01
2019-06-10T10:21:41.314Z,23.02
2019-06-10T10:24:11.474Z,22.75
2019-06-10T10:26:34.817Z,23.18
2019-06-10T10:29:02.762Z,23.41
2019-06-10T10:31:32.439Z,23.11
2019-06-10T10:33:57.243Z,23.21
2019-06-10T10:36:23.101Z,23.56
2019-06-10T10:38:49.040Z,23.76
2019-06-10T10:41:14.901Z,23.78
2019-06-10T10:43:42.961Z,23.80
2019-06-10T10:46:09.283Z,23.54
2019-06-10T10:48:35.319Z,24.04
2019-06-10T10:51:03.607Z,24.20
2019-06-10T10:53:28.960Z,24.66
2019-06-10T10:55:54.828Z,24.62
2019-06-10T10:58:22.523Z,23.92
2019-06-10T11:00:50.414Z,24.04
2019-06-10T11:03:16.178Z,23.28
2019-06-10T11:05:44.854Z,22.84
2019-06-10T11:08:13.124Z,22.64
2019-06-10T11:10:37.945Z,22.26
2019-06-10T11:13:06.706Z,22.12
2019-06-10T11:15:33.874Z,22.46
2019-06-10T11:18:01.435Z,22.53
2019-06-10T11:20:28.393Z,22.55
2019-06-10T11:22:54.401Z,22.98
2019-06-10T11:25:20.376Z,23.47
2019-06-10T11:27:46.407Z,23.46
2019-06-10T11:30:12.531Z,23.66
2019-06-10T11:32:38.430Z,23.92
2019-06-10T11:35:04.389Z,23.97
2019-06-10T11:37:30.226Z,23.88
2019-06-10T11:39:56.535Z,23.89
2019-06-10T11:42:24.370Z,24.18
2019-06-10T11:44:51.342Z,24.24
2019-06-10T11:47:18.315Z,24.72
2019-06-10T11:49:44.164Z,25.12
2019-06-10T11:52:12.449Z,25.69
2019-06-10T11:54:51.705Z,25.59
2019-06-10T11:57:06.139Z,25.53
2019-06-10T11:59:32.767Z,25.55
2019-06-10T12:02:00.340Z,25.27
2019-06-10T12:04:26.529Z,25.01
2019-06-10T12:06:52.652Z,25.22
2019-06-10T12:09:23.547Z,25.42
2019-06-10T12:11:49.392Z,25.46
2019-06-10T12:14:15.225Z,25.86
2019-06-10T12:19:08.855Z,25.72
2019-06-10T12:21:34.758Z,25.81
2019-06-10T12:24:02.653Z,26.00
2019-06-10T12:26:28.324Z,26.44
2019-06-10T12:28:56.263Z,26.76
2019-06-10T12:31:23.190Z,26.97
2019-06-10T12:33:50.587Z,26.55
2019-06-10T12:36:17.697Z,26.67
2019-06-10T12:38:43.779Z,26.72
2019-06-10T12:41:11.124Z,26.41
2019-06-10T12:43:37.663Z,25.91
2019-06-10T12:46:03.627Z,27.16
2019-06-10T12:48:29.484Z,26.72
2019-06-10T12:50:57.110Z,26.57
2019-06-10T12:53:23.142Z,26.45
2019-06-10T12:55:48.969Z,26.74
2019-06-10T12:58:14.824Z,26.85
2019-06-10T13:00:46.731Z,27.06
2019-06-10T13:03:13.552Z,27.10
2019-06-10T13:05:42.360Z,26.92
2019-06-10T13:08:08.088Z,27.29
2019-06-10T13:10:36.568Z,27.13
2019-06-10T13:13:06.633Z,27.18
2019-06-10T13:15:32.794Z,27.38
2019-06-10T13:17:58.194Z,27.35
2019-06-10T13:20:24.086Z,27.31
2019-06-10T13:22:49.905Z,27.56
2019-06-10T13:25:15.767Z,27.97
2019-06-10T13:27:42.819Z,27.90
2019-06-10T13:30:09.236Z,28.28
2019-06-10T13:32:35.098Z,28.41
2019-06-10T13:35:01.026Z,28.11
2019-06-10T13:37:26.898Z,28.04
2019-06-10T13:39:52.744Z,27.87
2019-06-10T13:42:18.600Z,27.61
2019-06-10T13:44:44.441Z,28.05
2019-06-10T13:47:14.613Z,28.03
2019-06-10T13:49:38.083Z,27.68
2019-06-10T13:52:09.127Z,28.25
2019-06-10T13:54:31.736Z,28.16
2019-06-10T13:56:59.048Z,28.09
2019-06-10T13:59:25.068Z,28.22
2019-06-10T14:01:53.163Z,28.53
2019-06-10T14:04:25.173Z,29.00
2019-06-10T14:06:50.353Z,29.01
2019-06-10T14:09:16.653Z,28.99
2019-06-10T14:11:42.481Z,29.06
2019-06-10T14:14:09.527Z,29.53
2019-06-10T14:16:35.381Z,29.78
2019-06-10T14:19:02.129Z,29.67
2019-06-10T14:21:29.126Z,29.56
2019-06-10T14:23:54.979Z,29.51
2019-06-10T14:26:36.164Z,29.43
2019-06-10T14:28:48.597Z,28.75
2019-06-10T14:31:33.721Z,28.63
2019-06-10T14:33:42.897Z,28.80
2019-06-10T14:36:10.353Z,28.77
2019-06-10T14:38:36.620Z,29.35
2019-06-10T14:41:03.322Z,29.46
2019-06-10T14:43:33.000Z,28.89
2019-06-10T14:45:58.083Z,28.53
2019-06-10T14:48:23.927Z,28.74
2019-06-10T14:50:49.776Z,29.47
2019-06-10T14:53:16.893Z,29.32
2019-06-10T14:55:43.308Z,29.38
2019-06-10T14:58:10.205Z,29.59
2019-06-10T15:00:37.140Z,28.58
2019-06-10T15:03:05.665Z,28.71
2019-06-10T15:05:32.381Z,27.92
2019-06-10T15:07:58.363Z,27.21
2019-06-10T15:10:24.206Z,27.38
2019-06-10T15:12:50.148Z,27.32
2019-06-10T15:15:17.405Z,27.14
2019-06-10T15:17:43.261Z,26.79
2019-06-10T15:20:09.635Z,26.36
2019-06-10T15:22:35.563Z,26.35
2019-06-10T15:25:03.301Z,26.43
2019-06-10T15:27:31.642Z,26.19
2019-06-10T15:29:57.106Z,26.19
2019-06-10T15:32:33.723Z,26.04
2019-06-10T15:34:52.468Z,26.09
2019-06-10T15:37:19.351Z,25.90
2019-06-10T15:39:46.225Z,26.21
2019-06-10T15:42:13.436Z,25.90
2019-06-10T15:44:49.669Z,26.08
2019-06-10T15:47:07.240Z,26.18
2019-06-10T15:49:33.212Z,26.60
2019-06-10T15:51:59.090Z,26.22
2019-06-10T15:54:25.493Z,25.71
2019-06-10T15:56:56.146Z,25.76
2019-06-10T15:59:19.823Z,25.66
2019-06-10T16:01:45.747Z,25.70
2019-06-10T16:04:14.158Z,25.77
2019-06-10T16:06:39.362Z,25.69
2019-06-10T16:09:06.422Z,25.62
2019-06-10T16:11:33.119Z,25.67
2019-06-10T16:13:59.101Z,25.94
2019-06-10T16:16:24.966Z,26.11
2019-06-10T16:18:52.784Z,25.85
2019-06-10T16:21:19.157Z,25.93
2019-06-10T16:23:46.289Z,25.95
2019-06-10T16:26:13.058Z,25.92
2019-06-10T16:28:39.973Z,26.14
2019-06-10T16:31:05.817Z,25.57
2019-06-10T16:33:33.462Z,25.30
2019-06-10T16:35:59.421Z,24.96
2019-06-10T16:38:26.930Z,24.39
2019-06-10T16:40:53.877Z,24.06
2019-06-10T16:43:19.796Z,23.76
2019-06-10T16:45:45.634Z,23.84
2019-06-10T16:48:13.070Z,23.50
2019-06-10T16:50:39.170Z,23.49
2019-06-10T16:53:05.023Z,23.27
2019-06-10T16:55:33.275Z,23.04
2019-06-10T16:57:59.774Z,22.69
2019-06-10T17:00:27.648Z,22.54
2019-06-10T17:02:53.610Z,22.58
2019-06-10T17:05:21.243Z,22.49
2019-06-10T17:07:47.270Z,22.25
2019-06-10T17:10:13.383Z,22.37
2019-06-10T17:12:39.361Z,22.23
2019-06-10T17:15:09.009Z,22.22
2019-06-10T17:17:35.616Z,22.07
2019-06-10T17:20:03.922Z,21.90
2019-06-10T17:22:30.956Z,21.88
2019-06-10T17:24:57.551Z,21.97
2019-06-10T17:27:24.936Z,21.79
2019-06-10T17:29:51.976Z,21.73
2019-06-10T17:32:18.032Z,21.44
2019-06-10T17:34:43.908Z,21.29
2019-06-10T17:37:09.781Z,21.20
2019-06-10T17:39:35.663Z,21.27
2019-06-10T17:42:01.549Z,21.15
2019-06-10T17:44:29.201Z,21.14
2019-06-10T17:46:55.212Z,20.81
2019-06-10T17:49:23.893Z,20.63
2019-06-10T17:51:48.966Z,20.68
2019-06-10T17:54:14.825Z,20.43
2019-06-10T17:56:42.625Z,20.41
2019-06-10T17:59:08.505Z,20.18
2019-06-10T18:01:35.683Z,20.04
2019-06-10T18:04:02.521Z,19.83
2019-06-10T18:06:29.700Z,19.89
2019-06-10T18:08:55.668Z,20.03
2019-06-10T18:11:23.385Z,20.29
2019-06-10T18:13:49.383Z,20.01
2019-06-10T18:16:15.265Z,19.92
2019-06-10T18:18:42.568Z,19.96
2019-06-10T18:21:08.517Z,19.96
2019-06-10T18:23:35.176Z,19.86
2019-06-10T18:26:03.276Z,19.95
2019-06-10T18:28:29.301Z,19.85
2019-06-10T18:30:55.242Z,20.11
2019-06-10T18:33:23.016Z,20.03
2019-06-10T18:35:48.911Z,20.11
2019-06-10T18:38:23.294Z,20.04
2019-06-10T18:40:49.279Z,19.86
2019-06-10T18:43:18.164Z,20.23
2019-06-10T18:45:43.112Z,20.16
2019-06-10T18:48:08.992Z,19.98
2019-06-10T18:50:36.694Z,20.52
2019-06-10T18:53:04.133Z,20.39
2019-06-10T18:55:30.870Z,19.96
2019-06-10T18:57:58.302Z,19.77
2019-06-10T19:00:25.901Z,19.53
2019-06-10T19:03:08.635Z,19.38
2019-06-10T19:05:22.284Z,19.18
2019-06-10T19:07:48.068Z,19.13
2019-06-10T19:10:14.334Z,19.06
2019-06-10T19:12:42.504Z,19.00
2019-06-10T19:15:08.935Z,18.90
2019-06-10T19:17:38.230Z,18.94
2019-06-10T19:20:06.828Z,18.58
2019-06-10T19:22:34.669Z,18.49
2019-06-10T19:25:03.489Z,18.07
2019-06-10T19:27:28.398Z,17.88
2019-06-10T19:29:55.021Z,17.92
2019-06-10T19:32:21.218Z,17.88
2019-06-10T19:34:48.484Z,17.90
2019-06-10T19:37:14.677Z,17.89
2019-06-10T19:39:49.294Z,17.65
2019-06-10T19:42:09.468Z,17.67
2019-06-10T19:44:36.972Z,17.76
2019-06-10T19:47:03.375Z,17.80
2019-06-10T19:49:29.334Z,17.77
2019-06-10T19:51:55.254Z,17.72
2019-06-10T19:54:21.161Z,17.93
2019-06-10T19:56:47.048Z,17.91
2019-06-10T19:59:12.952Z,17.88
2019-06-10T20:01:40.692Z,17.99
2019-06-10T20:04:06.694Z,17.83
2019-06-10T20:06:33.814Z,17.92
2019-06-10T20:08:59.752Z,18.14
2019-06-10T20:11:25.712Z,18.22
2019-06-10T20:13:53.154Z,18.00
2019-06-10T20:16:19.198Z,18.16
2019-06-10T20:18:47.635Z,18.12
2019-06-10T20:21:13.619Z,18.31
2019-06-10T20:23:39.487Z,18.34
2019-06-10T20:26:05.334Z,18.30
2019-06-10T20:28:32.207Z,18.50
2019-06-10T20:30:58.249Z,18.62
2019-06-10T20:33:28.811Z,18.72
2019-06-10T20:35:54.618Z,18.78
2019-06-10T20:38:22.311Z,18.66
2019-06-10T20:40:48.749Z,18.23
2019-06-10T20:43:14.632Z,18.38
2019-06-10T20:45:42.289Z,17.96
2019-06-10T20:48:08.212Z,17.91
2019-06-10T20:50:34.060Z,18.06
2019-06-10T20:53:11.945Z,17.98
2019-06-10T20:55:40.151Z,17.80
2019-06-10T20:58:03.327Z,17.89
2019-06-10T21:00:27.084Z,18.20
2019-06-10T21:02:53.742Z,18.22
2019-06-10T21:05:21.873Z,18.09
2019-06-10T21:07:48.887Z,18.09
2019-06-10T21:10:19.269Z,17.89
2019-06-10T21:12:47.738Z,17.76
2019-06-10T21:15:13.451Z,17.81
2019-06-10T21:17:40.872Z,17.60
2019-06-10T21:20:07.315Z,17.79
2019-06-10T21:22:33.156Z,17.95
2019-06-10T21:24:59.055Z,17.96
2019-06-10T21:27:24.897Z,17.99
2019-06-10T21:29:54.474Z,17.90
2019-06-10T21:32:18.554Z,17.87
2019-06-10T21:34:45.163Z,17.87
2019-06-10T21:37:12.241Z,17.88
2019-06-10T21:39:38.109Z,17.88
2019-06-10T21:42:03.961Z,17.81
2019-06-10T21:44:31.940Z,17.78
2019-06-10T21:46:57.631Z,18.05
2019-06-10T21:49:23.916Z,17.96
2019-06-10T21:51:51.189Z,17.78
2019-06-10T21:54:17.686Z,17.70
2019-06-10T21:56:44.542Z,17.37
2019-06-10T21:59:12.655Z,17.51
2019-06-10T22:01:38.533Z,16.91
2019-06-10T22:04:04.818Z,16.67
2019-06-10T22:06:32.965Z,16.43
2019-06-10T22:08:58.592Z,16.37
2019-06-10T22:11:24.454Z,16.63
2019-06-10T22:13:52.851Z,16.97
2019-06-10T22:16:18.080Z,17.13
2019-06-10T22:18:44.550Z,16.86
2019-06-10T22:21:10.465Z,16.71
2019-06-10T22:23:36.322Z,16.59
2019-06-10T22:26:02.819Z,16.45
2019-06-10T22:28:28.813Z,16.30
2019-06-10T22:31:14.589Z,16.77
2019-06-10T22:33:22.743Z,16.97
2019-06-10T22:35:49.541Z,16.99
2019-06-10T22:38:15.666Z,17.00
2019-06-10T22:40:42.672Z,16.90
2019-06-10T22:43:08.686Z,16.78
2019-06-10T22:45:34.519Z,16.61
2019-06-10T22:48:02.788Z,16.64
2019-06-10T22:50:28.131Z,16.61
2019-06-10T22:52:56.171Z,16.64
2019-06-10T22:55:21.767Z,16.39
2019-06-10T22:57:48.631Z,16.46
2019-06-10T23:00:14.885Z,16.76
2019-06-10T23:02:40.737Z,16.84
2019-06-10T23:05:06.982Z,17.13
2019-06-10T23:07:33.044Z,17.11
2019-06-10T23:09:59.151Z,17.00
2019-06-10T23:12:25.092Z,16.99
2019-06-10T23:14:53.237Z,16.61
2019-06-10T23:17:18.837Z,16.62
2019-06-10T23:19:44.702Z,16.80
2019-06-10T23:22:12.582Z,16.83
2019-06-10T23:24:38.277Z,16.75
2019-06-10T23:27:04.110Z,16.58
2019-06-10T23:29:32.106Z,16.59
2019-06-10T23:32:03.636Z,16.65
2019-06-10T23:34:25.431Z,16.79
2019-06-10T23:36:54.855Z,16.73
2019-06-10T23:39:19.052Z,16.78
2019-06-10T23:41:44.878Z,16.82
2019-06-10T23:44:12.181Z,16.49
2019-06-10T23:46:38.278Z,16.40
2019-06-10T23:49:04.641Z,16.38
2019-06-10T23:51:33.102Z,16.40
2019-06-10T23:54:00.344Z,16.44
2019-06-10T23:56:26.175Z,16.47
2019-06-10T23:58:52.858Z,16.41
